Time;durP1;ratioP1;P1;durP2;ratioP2;P2;SDS_P1;SDS_P2;PMS_P1;PMS_P2;Temp;Humidity;BMP_temperature;BMP_pressure;BME280_temperature;BME280_humidity;BME280_pressure;Samples;Min_cycle;Max_cycle;Signal;HPM_P1;HPM_P2
2024/03/08 00:04:49;;;;;;;20.90;11.60;;;;;;;3.48;89.75;95762.73;110498;1275;22779;-71
2024/03/08 00:07:20;;;;;;;19.40;12.30;;;;;;;3.48;89.80;95761.31;110486;1275;22213;-72
2024/03/08 00:09:59;;;;;;;20.00;12.10;;;;;;;3.47;89.40;95759.57;110501;1275;22107;-71
2024/03/08 00:12:57;;;;;;;18.50;12.80;;;;;;;3.48;89.29;95759.23;110535;1275;22197;-71
2024/03/08 00:15:32;;;;;;;23.30;14.00;;;;;;;3.50;89.44;95759.27;110505;1275;23071;-71
2024/03/08 00:18:17;;;;;;;22.90;14.30;;;;;;;3.52;89.47;95761.71;110516;1275;22118;-72
2024/03/08 00:21:32;;;;;;;22.30;14.50;;;;;;;3.48;89.37;95760.29;110485;1275;22914;-71
2024/03/08 00:24:46;;;;;;;26.20;16.40;;;;;;;3.49;89.24;95758.03;110528;1275;22150;-71
2024/03/08 00:27:23;;;;;;;21.80;13.30;;;;;;;3.49;89.58;95756.45;110536;1275;22111;-71
2024/03/08 00:30:06;;;;;;;24.50;13.90;;;;;;;3.49;89.38;95758.71;110548;1275;22155;-71
2024/03/08 00:32:44;;;;;;;25.30;13.60;;;;;;;3.47;89.34;95756.61;110538;1275;22258;-71
2024/03/08 00:35:48;;;;;;;24.10;14.40;;;;;;;3.51;89.52;95754.92;110585;1275;22207;-71
2024/03/08 00:39:06;;;;;;;19.50;12.80;;;;;;;3.55;89.25;95751.66;110523;1275;22124;-71
2024/03/08 00:41:48;;;;;;;20.60;13.00;;;;;;;3.57;89.14;95748.71;110491;1275;22159;-71
2024/03/08 00:45:17;;;;;;;;;;;;;;;;;;;;;
2024/03/08 00:48:27;;;;;;;20.80;12.40;;;;;;;3.52;88.37;95747.80;110381;1275;22130;-71
2024/03/08 00:51:08;;;;;;;22.90;13.40;;;;;;;3.45;88.37;95748.08;110339;1275;22911;-71
2024/03/08 00:54:27;;;;;;;;;;;;;;;;;;;;;
2024/03/08 00:57:09;;;;;;;21.80;12.90;;;;;;;3.32;88.58;95737.49;110528;1275;22107;-72
2024/03/08 00:59:48;;;;;;;19.00;12.40;;;;;;;3.31;88.62;95740.61;110540;1275;22846;-71
2024/03/08 01:03:03;;;;;;;;;;;;;;;;;;;;;
2024/03/08 01:05:42;;;;;;;17.70;11.70;;;;;;;3.32;88.67;95738.89;110510;1275;22746;-71
2024/03/08 01:08:14;;;;;;;23.10;12.50;;;;;;;3.32;88.51;95739.23;110466;1275;22132;-71
2024/03/08 01:11:17;;;;;;;23.70;12.10;;;;;;;3.31;88.54;95735.58;110536;1275;22183;-71
2024/03/08 01:13:47;;;;;;;20.10;11.20;;;;;;;3.29;88.38;95738.34;110488;1275;22120;-71
2024/03/08 01:16:20;;;;;;;17.60;11.20;;;;;;;3.25;88.81;95737.92;110508;1275;23082;-71
2024/03/08 01:18:54;;;;;;;25.80;13.10;;;;;;;3.24;88.92;95733.92;110525;1275;22108;-71
2024/03/08 01:21:34;;;;;;;21.30;13.40;;;;;;;3.27;88.94;95736.04;110515;1275;22792;-71
2024/03/08 01:24:14;;;;;;;18.20;11.60;;;;;;;3.30;88.83;95727.92;110517;1275;22219;-71
2024/03/08 01:27:10;;;;;;;21.80;12.00;;;;;;;3.30;88.77;95727.91;110520;1275;22133;-71
2024/03/08 01:29:54;;;;;;;;;;;;;;;;;;;;;
2024/03/08 01:32:54;;;;;;;19.80;13.10;;;;;;;3.29;88.84;95732.25;110513;1275;22160;-71
2024/03/08 01:35:44;;;;;;;19.50;12.70;;;;;;;3.28;88.92;95732.08;110480;1275;22200;-71
2024/03/08 01:38:29;;;;;;;17.00;11.40;;;;;;;3.26;88.79;95734.64;110499;1275;22549;-71
2024/03/08 01:41:29;;;;;;;19.80;11.80;;;;;;;3.24;88.66;95736.36;110459;1275;22130;-71
2024/03/08 01:44:17;;;;;;;21.30;12.90;;;;;;;3.26;88.92;95738.30;110500;1275;22120;-71
2024/03/08 01:47:07;;;;;;;16.50;11.30;;;;;;;3.28;88.89;95733.45;110463;1275;22117;-71
2024/03/08 01:49:44;;;;;;;20.10;12.30;;;;;;;3.29;88.74;95737.30;110445;1275;22101;-71
2024/03/08 01:52:46;;;;;;;21.00;11.80;;;;;;;3.29;88.80;95739.54;110507;1275;22269;-71
2024/03/08 01:55:18;;;;;;;21.10;12.50;;;;;;;3.28;88.69;95740.41;110491;1275;22160;-71
2024/03/08 01:57:50;;;;;;;20.70;12.20;;;;;;;3.25;88.76;95737.41;110534;1275;22126;-71
2024/03/08 02:00:32;;;;;;;21.10;12.10;;;;;;;3.20;89.00;95738.21;110481;1275;22126;-71
2024/03/08 02:03:18;;;;;;;;;;;;;;;;;;;;;
2024/03/08 02:06:02;;;;;;;20.50;12.00;;;;;;;3.19;88.98;95736.98;110501;1275;22129;-71
2024/03/08 02:08:54;;;;;;;22.80;12.20;;;;;;;3.23;88.87;95735.30;110426;1275;22127;-71
2024/03/08 02:11:26;;;;;;;19.50;12.10;;;;;;;3.24;88.82;95734.79;110505;1275;22136;-71
2024/03/08 02:14:06;;;;;;;25.60;13.50;;;;;;;3.24;88.67;95734.27;110483;1275;22112;-71
2024/03/08 02:17:23;;;;;;;21.00;11.90;;;;;;;3.23;88.42;95736.52;110486;1275;22120;-71
2024/03/08 02:20:09;;;;;;;21.90;12.50;;;;;;;3.21;88.43;95734.24;110537;1275;22237;-71
2024/03/08 02:22:51;;;;;;;23.30;12.60;;;;;;;3.22;88.54;95732.86;110505;1261;22100;-71
2024/03/08 02:25:37;;;;;;;19.30;11.00;;;;;;;3.24;88.42;95734.09;110437;1275;22118;-71
2024/03/08 02:28:07;;;;;;;18.70;12.00;;;;;;;3.24;88.32;95730.45;110515;1275;22325;-71
2024/03/08 02:30:39;;;;;;;22.40;12.10;;;;;;;3.26;88.31;95728.57;110437;1275;22172;-71
2024/03/08 02:33:27;;;;;;;;;;;;;;;;;;;;;
2024/03/08 02:36:28;;;;;;;21.90;12.40;;;;;;;3.25;88.11;95733.77;110453;1275;22918;-71
2024/03/08 02:39:16;;;;;;;19.30;11.40;;;;;;;3.23;88.03;95734.61;110509;1275;22112;-71
2024/03/08 02:41:58;;;;;;;18.50;12.70;;;;;;;3.23;87.93;95736.00;110513;1275;22755;-72
2024/03/08 02:44:27;;;;;;;19.40;12.40;;;;;;;3.23;87.99;95735.99;110470;1275;22089;-71
2024/03/08 02:47:32;;;;;;;20.00;12.10;;;;;;;3.23;87.97;95736.00;110498;1272;22176;-71
2024/03/08 02:50:03;;;;;;;23.70;13.10;;;;;;;3.23;87.84;95736.69;110467;1275;22110;-71
2024/03/08 02:52:52;;;;;;;22.10;13.60;;;;;;;3.22;87.94;95738.41;110499;1275;22189;-71
2024/03/08 02:55:27;;;;;;;21.30;12.10;;;;;;;3.24;87.93;95738.09;110479;1275;22146;-71
2024/03/08 02:57:59;;;;;;;20.40;11.60;;;;;;;3.22;87.60;95739.98;110441;1275;22152;-71
2024/03/08 03:00:31;;;;;;;22.60;13.30;;;;;;;3.20;87.38;95735.44;110519;1275;22123;-71
2024/03/08 03:03:53;;;;;;;21.10;13.30;;;;;;;3.20;87.55;95735.09;110451;1275;22188;-71
2024/03/08 03:06:40;;;;;;;22.30;13.30;;;;;;;3.21;87.64;95742.06;110482;1275;22136;-71
2024/03/08 03:13:51;;;;;;;17.70;11.60;;;;;;;3.14;87.47;95741.28;110456;1275;22116;-72
2024/03/08 03:17:02;;;;;;;21.90;11.00;;;;;;;3.14;87.45;95744.74;110457;1275;22099;-71
2024/03/08 03:20:09;;;;;;;19.40;12.10;;;;;;;3.11;87.48;95746.28;110525;1275;22894;-71
2024/03/08 03:22:41;;;;;;;22.30;11.90;;;;;;;3.14;87.64;95746.83;110427;1275;22145;-71
2024/03/08 03:25:34;;;;;;;20.80;12.20;;;;;;;3.16;87.67;95747.04;110469;1275;22106;-71
2024/03/08 03:29:05;;;;;;;21.80;12.50;;;;;;;3.15;87.37;95744.42;110486;1275;22103;-71
2024/03/08 03:31:30;;;;;;;22.40;12.50;;;;;;;3.15;87.48;95749.63;110455;1275;22904;-71
2024/03/08 03:34:03;;;;;;;20.50;12.30;;;;;;;3.17;87.50;95745.65;110515;1275;22907;-71
2024/03/08 03:37:23;;;;;;;18.40;12.20;;;;;;;3.18;87.37;95747.23;110453;1275;22110;-71
2024/03/08 03:40:33;;;;;;;17.10;11.50;;;;;;;3.20;87.36;95746.91;110480;1275;22104;-71
2024/03/08 03:43:04;;;;;;;19.90;11.50;;;;;;;3.18;87.07;95748.96;110424;1275;22984;-71
2024/03/08 03:45:34;;;;;;;17.90;11.40;;;;;;;3.17;87.06;95748.08;110474;1275;22797;-71
2024/03/08 03:48:13;;;;;;;22.40;12.50;;;;;;;3.15;86.97;95751.36;110430;1275;22127;-71
2024/03/08 03:50:53;;;;;;;18.70;12.20;;;;;;;3.13;87.17;95750.81;110520;1260;22129;-72
2024/03/08 03:54:13;;;;;;;;;;;;;;;;;;;;;
2024/03/08 03:57:08;;;;;;;18.80;11.60;;;;;;;3.16;87.44;95747.56;110512;1275;22219;-71
2024/03/08 04:00:12;;;;;;;17.40;11.00;;;;;;;3.15;87.18;95747.20;110496;1275;22141;-71
2024/03/08 04:03:07;;;;;;;21.60;12.30;;;;;;;3.14;87.13;95747.36;110520;1275;22126;-71
2024/03/08 04:05:45;;;;;;;20.30;12.30;;;;;;;3.09;87.15;95751.82;110477;1275;22135;-71
2024/03/08 04:08:57;;;;;;;22.40;12.90;;;;;;;3.08;87.19;95749.20;110470;1275;22113;-71
2024/03/08 04:11:35;;;;;;;21.70;12.40;;;;;;;3.06;87.23;95754.73;110516;1275;22215;-71
2024/03/08 04:14:49;;;;;;;21.90;12.60;;;;;;;3.02;87.42;95753.29;110489;1275;22119;-71
2024/03/08 04:18:11;;;;;;;23.10;13.60;;;;;;;3.05;87.60;95756.98;110491;1268;22259;-71
2024/03/08 04:20:56;;;;;;;19.70;12.70;;;;;;;3.11;87.61;95756.36;110507;1275;22116;-71
2024/03/08 04:23:39;;;;;;;;;;;;;;;;;;;;;
2024/03/08 04:27:02;;;;;;;20.30;11.60;;;;;;;3.15;87.29;95752.92;110475;1275;22093;-70
2024/03/08 04:29:55;;;;;;;20.90;11.70;;;;;;;3.10;87.04;95756.17;110457;1275;22141;-70
2024/03/08 04:33:06;;;;;;;21.90;12.20;;;;;;;3.08;87.10;95757.02;110456;1275;22977;-70
2024/03/08 04:35:58;;;;;;;19.20;11.90;;;;;;;3.06;87.18;95754.73;110479;1275;22907;-70
2024/03/08 04:38:58;;;;;;;;;;;;;;;;;;;;;
2024/03/08 04:42:29;;;;;;;21.60;12.00;;;;;;;3.04;87.09;95763.40;110478;1276;22152;-71
2024/03/08 04:45:02;;;;;;;19.60;12.20;;;;;;;2.98;87.47;95761.07;110508;1264;22080;-70
2024/03/08 04:48:11;;;;;;;21.20;13.70;;;;;;;2.99;87.39;95764.04;110481;1276;22851;-70
2024/03/08 04:50:53;;;;;;;22.20;13.50;;;;;;;2.98;87.26;95766.27;110443;1276;22126;-70
2024/03/08 04:54:04;;;;;;;;;;;;;;;;;;;;;
2024/03/08 04:57:25;;;;;;;22.50;14.20;;;;;;;2.97;87.52;95768.86;110357;1276;22183;-70
2024/03/08 05:00:18;;;;;;;22.90;12.60;;;;;;;2.98;87.09;95769.39;110458;1276;22092;-70
2024/03/08 05:03:21;;;;;;;21.10;12.50;;;;;;;2.95;87.04;95769.20;110441;1276;22121;-70
2024/03/08 05:06:30;;;;;;;23.50;13.20;;;;;;;2.92;86.85;95774.17;110507;1276;22106;-70
2024/03/08 05:13:50;;;;;;;20.00;12.40;;;;;;;2.84;86.85;95776.50;110477;1276;22121;-70
2024/03/08 05:17:08;;;;;;;;;;;;;;;;;;;;;
2024/03/08 05:20:17;;;;;;;;;;;;;;;;;;;;;
2024/03/08 05:23:55;;;;;;;23.10;12.80;;;;;;;2.86;86.80;95777.58;110499;1276;22144;-70
2024/03/08 05:27:21;;;;;;;;;;;;;;;;;;;;;
2024/03/08 05:30:36;;;;;;;23.40;12.90;;;;;;;2.81;86.68;95778.54;110486;1276;22232;-71
2024/03/08 05:33:35;;;;;;;;;;;;;;;;;;;;;
2024/03/08 05:37:00;;;;;;;;;;;;;;;;;;;;;
2024/03/08 05:39:37;;;;;;;27.00;13.80;;;;;;;2.88;87.02;95789.77;110474;1275;22226;-71
2024/03/08 05:42:55;;;;;;;25.60;14.40;;;;;;;2.91;87.13;95793.28;110518;1275;22121;-71
2024/03/08 05:45:47;;;;;;;24.20;14.10;;;;;;;2.97;87.24;95791.63;110519;1275;22150;-70
2024/03/08 05:49:11;;;;;;;25.40;12.60;;;;;;;2.99;86.81;95797.91;110536;1275;22978;-71
2024/03/08 05:51:51;;;;;;;26.10;13.60;;;;;;;2.98;86.73;95796.68;110534;1275;22132;-70
2024/03/08 05:54:29;;;;;;;23.90;14.80;;;;;;;2.95;86.70;95804.98;110431;1275;22156;-70
2024/03/08 05:57:40;;;;;;;;;;;;;;;;;;;;;
2024/03/08 06:00:32;;;;;;;27.20;14.30;;;;;;;3.00;86.61;95803.31;110479;1275;22194;-70
2024/03/08 06:03:32;;;;;;;25.60;14.70;;;;;;;3.01;86.69;95805.59;110500;1275;22170;-70
2024/03/08 06:06:38;;;;;;;;;;;;;;;;;;;;;
2024/03/08 06:09:33;;;;;;;21.20;12.90;;;;;;;3.08;86.49;95812.29;110549;1268;22716;-71
2024/03/08 06:12:42;;;;;;;22.80;12.90;;;;;;;3.12;86.58;95812.85;110538;1274;22164;-73
2024/03/08 06:15:50;;;;;;;28.80;16.10;;;;;;;3.14;86.28;95815.48;110573;1273;23151;-72
2024/03/08 06:18:57;;;;;;;26.30;13.80;;;;;;;3.11;85.68;95815.13;110646;1274;22243;-71
2024/03/08 06:22:05;;;;;;;;;;;;;;;;;;;;;
2024/03/08 06:25:34;;;;;;;25.20;14.30;;;;;;;3.14;86.06;95818.10;110616;1274;22340;-71
2024/03/08 06:29:15;;;;;;;22.20;13.90;;;;;;;3.20;85.96;95815.92;110590;1274;22295;-71
2024/03/08 06:32:45;;;;;;;29.00;15.90;;;;;;;3.21;85.96;95816.63;110610;1274;22271;-72
2024/03/08 06:39:01;;;;;;;;;;;;;;;;;;;;;
2024/03/08 06:42:24;;;;;;;27.90;15.90;;;;;;;3.30;85.48;95819.53;110574;1275;22226;-73
2024/03/08 06:46:05;;;;;;;26.70;15.00;;;;;;;3.36;85.31;95822.56;110558;1275;22141;-74
2024/03/08 06:48:59;;;;;;;25.70;14.00;;;;;;;3.43;85.29;95824.92;110530;1275;22996;-72
2024/03/08 06:51:41;;;;;;;27.20;14.70;;;;;;;3.46;84.33;95823.55;110531;1274;22104;-71
2024/03/08 06:58:03;;;;;;;23.20;13.40;;;;;;;3.54;83.88;95826.61;110484;1274;22167;-72
2024/03/08 07:00:49;;;;;;;22.20;13.90;;;;;;;3.54;82.46;95824.52;110570;1275;22955;-72
2024/03/08 07:03:22;;;;;;;24.50;14.20;;;;;;;3.53;82.48;95828.35;110458;1275;22237;-72
2024/03/08 07:05:54;;;;;;;22.60;13.70;;;;;;;3.56;82.93;95827.52;110560;1275;22889;-72
2024/03/08 07:09:02;;;;;;;24.60;14.90;;;;;;;3.59;82.64;95829.98;110475;1275;22185;-72
2024/03/08 07:11:54;;;;;;;22.20;13.50;;;;;;;3.62;82.85;95828.98;110505;1274;22842;-72
2024/03/08 07:15:19;;;;;;;;;;;;;;;;;;;;;
2024/03/08 07:17:57;;;;;;;31.50;19.90;;;;;;;3.67;82.75;95834.60;110543;1274;22143;-73
2024/03/08 07:20:46;;;;;;;24.80;15.90;;;;;;;3.72;82.79;95835.52;110455;1275;22778;-71
2024/03/08 07:23:53;;;;;;;23.10;13.90;;;;;;;3.73;82.44;95836.58;110548;1275;22232;-71
2024/03/08 07:26:35;;;;;;;29.20;20.00;;;;;;;3.74;82.44;95837.98;110548;1274;22191;-71
2024/03/08 07:29:17;;;;;;;28.70;16.70;;;;;;;3.76;82.51;95832.45;110552;1275;22892;-73
2024/03/08 07:35:31;;;;;;;26.50;15.60;;;;;;;3.80;81.76;95834.05;110526;1275;22909;-73
2024/03/08 07:38:12;;;;;;;30.60;16.40;;;;;;;3.80;81.84;95835.79;110584;1274;22272;-71
2024/03/08 07:41:02;;;;;;;34.70;17.10;;;;;;;3.82;81.61;95838.95;110576;1274;22204;-71
2024/03/08 07:44:01;;;;;;;33.30;17.50;;;;;;;3.79;80.98;95839.44;110503;1273;22175;-72
2024/03/08 07:46:36;;;;;;;31.00;16.60;;;;;;;3.76;80.69;95839.39;110604;1274;22923;-71
2024/03/08 07:49:25;;;;;;;26.00;14.60;;;;;;;3.81;81.45;95837.36;110553;1273;22118;-70
2024/03/08 07:52:37;;;;;;;22.90;12.80;;;;;;;3.82;80.52;95841.04;110585;1273;22327;-71
2024/03/08 07:55:20;;;;;;;22.10;14.30;;;;;;;3.81;80.82;95838.92;106104;1273;5834988;-78
2024/03/08 07:58:24;;;;;;;23.00;12.60;;;;;;;3.90;81.36;95839.38;110565;1273;22162;-72
2024/03/08 08:01:02;;;;;;;25.50;13.80;;;;;;;3.92;80.87;95838.02;110565;1273;22190;-71
2024/03/08 08:03:56;;;;;;;23.50;14.20;;;;;;;3.96;81.52;95839.28;110567;1273;22364;-71
2024/03/08 08:06:36;;;;;;;26.10;15.60;;;;;;;4.03;81.27;95838.84;110618;1274;22205;-71
2024/03/08 08:10:16;;;;;;;30.30;17.50;;;;;;;4.09;81.34;95840.29;110606;1274;22262;-74
2024/03/08 08:12:21;;;;;;;23.30;14.60;;;;;;;4.14;80.63;95839.12;110514;1274;22736;-75
2024/03/08 08:14:53;;;;;;;24.90;14.70;;;;;;;4.15;80.61;95843.30;110613;1273;23002;-73
2024/03/08 08:17:34;;;;;;;31.40;15.80;;;;;;;4.18;80.58;95844.20;110573;1274;22194;-73
2024/03/08 08:20:16;;;;;;;27.20;15.30;;;;;;;4.25;80.91;95841.66;110591;1273;22228;-73
2024/03/08 08:23:29;;;;;;;27.70;14.00;;;;;;;4.28;80.62;95840.14;110562;1274;22204;-73
2024/03/08 08:26:21;;;;;;;26.80;13.80;;;;;;;4.28;80.41;95843.96;110611;1266;22214;-74
2024/03/08 08:29:04;;;;;;;;;;;;;;;;;;;;;
2024/03/08 08:31:39;;;;;;;25.90;14.50;;;;;;;4.39;81.31;95846.85;110557;1274;22973;-71
2024/03/08 08:34:23;;;;;;;;;;;;;;;;;;;;;
2024/03/08 08:37:16;;;;;;;30.90;14.70;;;;;;;4.50;81.09;95846.43;110590;1274;22930;-73
2024/03/08 08:40:31;;;;;;;26.30;13.80;;;;;;;4.52;80.99;95844.70;110592;1273;23199;-73
2024/03/08 08:43:24;;;;;;;23.60;13.90;;;;;;;4.59;80.94;95841.12;110592;1274;23343;-73
2024/03/08 08:46:54;;;;;;;21.00;12.60;;;;;;;4.56;79.93;95845.08;110569;1274;22361;-73
2024/03/08 08:49:51;;;;;;;23.20;13.80;;;;;;;4.59;80.30;95845.27;110603;1274;22706;-73
2024/03/08 08:53:03;;;;;;;28.60;15.20;;;;;;;4.71;80.92;95845.39;110596;1274;22120;-74
2024/03/08 08:55:49;;;;;;;22.30;13.60;;;;;;;4.84;80.91;95841.83;110593;1274;22102;-72
2024/03/08 08:59:00;;;;;;;29.90;13.90;;;;;;;4.91;80.85;95842.92;110619;1274;22771;-72
2024/03/08 09:01:31;;;;;;;24.30;14.20;;;;;;;4.95;79.78;95843.48;110627;1274;22199;-72
2024/03/08 09:04:38;;;;;;;25.10;13.90;;;;;;;5.00;79.92;95844.56;110608;1274;22254;-71
2024/03/08 09:07:42;;;;;;;;;;;;;;;;;;;;;
2024/03/08 09:10:39;;;;;;;23.90;13.30;;;;;;;5.09;79.79;95846.89;110571;1274;22334;-73
2024/03/08 09:13:18;;;;;;;22.10;12.70;;;;;;;5.07;79.77;95845.99;110604;1274;22232;-74
2024/03/08 09:16:04;;;;;;;26.50;15.90;;;;;;;5.10;80.56;95844.63;110595;1273;22122;-74
2024/03/08 09:18:56;;;;;;;;;;;;;;;;;;;;;
2024/03/08 09:21:44;;;;;;;22.30;14.60;;;;;;;5.20;80.74;95843.65;110627;1260;22158;-73
2024/03/08 09:25:17;;;;;;;21.70;13.80;;;;;;;5.25;80.76;95842.64;110616;1274;23022;-71
2024/03/08 09:28:48;;;;;;;24.30;13.40;;;;;;;5.26;80.79;95845.27;110583;1274;22380;-74
2024/03/08 09:31:20;;;;;;;24.20;13.90;;;;;;;5.23;80.72;95844.35;110585;1274;22227;-72
2024/03/08 09:34:27;;;;;;;;;;;;;;;;;;;;;
2024/03/08 09:40:15;;;;;;;22.40;13.90;;;;;;;5.19;81.35;95843.45;110606;1273;22972;-73
2024/03/08 09:43:04;;;;;;;23.30;13.50;;;;;;;5.21;81.42;95847.48;110598;1273;22263;-73
2024/03/08 09:45:52;;;;;;;19.80;13.10;;;;;;;5.24;81.49;95842.80;110614;1273;22256;-73
2024/03/08 09:48:30;;;;;;;19.50;13.00;;;;;;;5.23;81.45;95841.56;110426;1273;22256;-74
2024/03/08 09:51:23;;;;;;;22.40;13.80;;;;;;;5.23;81.51;95843.84;110594;1273;22227;-75
2024/03/08 09:53:55;;;;;;;19.30;13.00;;;;;;;5.19;81.25;95838.74;110592;1273;22073;-73
2024/03/08 09:57:12;;;;;;;21.30;12.80;;;;;;;5.16;81.41;95841.88;110656;1273;22113;-72
2024/03/08 09:59:58;;;;;;;23.30;14.00;;;;;;;5.14;81.97;95845.00;110651;1273;22229;-72
2024/03/08 10:02:51;;;;;;;23.60;13.70;;;;;;;5.18;82.01;95846.23;110647;1273;22106;-72
2024/03/08 10:05:32;;;;;;;21.10;12.40;;;;;;;5.24;81.73;95848.19;110638;1273;22910;-72
2024/03/08 10:08:09;;;;;;;22.90;13.00;;;;;;;5.23;82.02;95849.41;110651;1273;22323;-72
2024/03/08 10:11:11;;;;;;;24.90;14.50;;;;;;;5.25;81.88;95850.13;110613;1273;22115;-72
2024/03/08 10:14:29;;;;;;;22.10;13.20;;;;;;;5.23;81.84;95853.77;110641;1273;22630;-72
2024/03/08 10:17:00;;;;;;;25.50;13.10;;;;;;;5.19;81.93;95849.23;110643;1273;22184;-72
2024/03/08 10:20:49;;;;;;;22.40;13.00;;;;;;;5.20;82.00;95856.20;110637;1273;22171;-72
2024/03/08 10:23:37;;;;;;;22.40;13.30;;;;;;;5.19;81.72;95856.72;110579;1273;22707;-72
2024/03/08 10:26:16;;;;;;;24.20;13.30;;;;;;;5.17;81.94;95858.79;110589;1274;22115;-72
2024/03/08 10:29:18;;;;;;;;;;;;;;;;;;;;;
2024/03/08 10:31:58;;;;;;;;;;;;;;;;;;;;;
2024/03/08 10:34:30;;;;;;;23.70;13.20;;;;;;;5.31;82.16;95854.18;110648;1273;22832;-72
2024/03/08 10:37:05;;;;;;;21.60;14.50;;;;;;;5.31;82.10;95852.96;110649;1274;22125;-72
2024/03/08 10:40:10;;;;;;;22.10;13.70;;;;;;;5.30;81.94;95855.21;110627;1273;22418;-73
2024/03/08 10:43:00;;;;;;;24.00;13.80;;;;;;;5.29;81.84;95853.83;110493;1274;22081;-72
2024/03/08 10:46:16;;;;;;;21.10;13.20;;;;;;;5.30;82.09;95850.86;110601;1273;23038;-72
2024/03/08 10:49:10;;;;;;;72.60;32.10;;;;;;;5.32;81.78;95844.77;110633;1273;22131;-72
2024/03/08 10:51:41;;;;;;;27.30;16.80;;;;;;;5.31;81.86;95842.48;110642;1273;22114;-72
2024/03/08 10:55:12;;;;;;;22.70;13.90;;;;;;;5.32;82.11;95846.86;110623;1274;22212;-72
2024/03/08 11:00:53;;;;;;;24.40;14.50;;;;;;;5.41;82.53;95836.43;110624;1273;22103;-72
2024/03/08 11:03:44;;;;;;;20.20;12.70;;;;;;;5.44;82.56;95834.70;110645;1273;22099;-72
2024/03/08 11:06:22;;;;;;;15.60;11.00;;;;;;;5.48;82.72;95830.71;110625;1274;22170;-72
2024/03/08 11:09:30;;;;;;;19.60;10.30;;;;;;;5.54;82.37;95827.94;110478;1273;22098;-72
2024/03/08 11:13:06;;;;;;;15.60;9.40;;;;;;;5.58;82.13;95826.92;110594;1273;22083;-72
2024/03/08 11:15:18;;;;;;;14.30;8.70;;;;;;;5.64;81.94;95826.08;110537;1274;22945;-72
2024/03/08 11:17:49;;;;;;;10.90;7.20;;;;;;;5.70;81.82;95828.20;110611;1274;22128;-72
2024/03/08 11:20:32;;;;;;;11.70;8.70;;;;;;;5.73;81.67;95829.25;110602;1273;22135;-72
2024/03/08 11:23:33;;;;;;;16.30;9.70;;;;;;;5.75;81.39;95824.02;110644;1274;22127;-72
2024/03/08 11:26:13;;;;;;;18.10;10.20;;;;;;;5.72;81.33;95821.91;110617;1273;22109;-73
2024/03/08 11:29:26;;;;;;;16.70;11.00;;;;;;;5.73;81.33;95823.13;110586;1274;22122;-72
2024/03/08 11:32:17;;;;;;;13.10;8.30;;;;;;;5.70;81.58;95823.14;110648;1273;22244;-72
2024/03/08 11:34:55;;;;;;;11.90;7.60;;;;;;;5.69;81.29;95816.49;110643;1274;22201;-72
2024/03/08 11:37:24;;;;;;;17.90;9.20;;;;;;;5.69;81.26;95814.23;110655;1274;22871;-72
2024/03/08 11:40:15;;;;;;;7.60;5.30;;;;;;;5.68;80.96;95810.90;110617;1274;22193;-72
2024/03/08 11:42:49;;;;;;;8.80;5.60;;;;;;;5.62;80.22;95809.84;110621;1274;22124;-72
2024/03/08 11:45:38;;;;;;;10.30;7.10;;;;;;;5.60;80.33;95812.45;110618;1273;22738;-72
2024/03/08 11:48:53;;;;;;;6.60;4.70;;;;;;;5.64;80.31;95811.06;110630;1273;22092;-72
2024/03/08 11:51:21;;;;;;;;;;;;;;;5.58;79.78;95816.80;110639;1274;22156;-72
2024/03/08 11:53:50;;;;;;;6.30;4.30;;;;;;;5.53;80.08;95810.67;110640;1274;22280;-72
2024/03/08 11:56:34;;;;;;;;;;;;;;;;;;;;;
2024/03/08 11:59:05;;;;;;;2.90;2.00;;;;;;;5.52;79.54;95810.48;110605;1274;22128;-72
2024/03/08 12:01:35;;;;;;;2.90;2.20;;;;;;;5.51;79.54;95811.01;110586;1274;22105;-72
2024/03/08 12:04:14;;;;;;;2.80;2.30;;;;;;;5.51;79.69;95811.88;110580;1274;22131;-72
2024/03/08 12:07:08;;;;;;;3.80;3.10;;;;;;;5.51;79.69;95807.86;110604;1273;22115;-72
2024/03/08 12:09:37;;;;;;;4.20;3.00;;;;;;;5.49;80.36;95810.12;110632;1273;22869;-72
2024/03/08 12:12:11;;;;;;;3.70;3.30;;;;;;;5.51;79.70;95810.48;110612;1273;22237;-73
2024/03/08 12:15:16;;;;;;;5.10;4.40;;;;;;;5.54;79.81;95807.88;110598;1273;22106;-73
2024/03/08 12:18:15;;;;;;;14.70;11.80;;;;;;;5.62;80.27;95805.30;110623;1273;22104;-72
2024/03/08 12:21:00;;;;;;;;;;;;;;;;;;;;;
2024/03/08 12:23:29;;;;;;;7.90;6.20;;;;;;;5.72;80.30;95802.72;110622;1274;22120;-72
2024/03/08 12:26:40;;;;;;;6.00;5.10;;;;;;;5.73;79.85;95803.95;110618;1274;22902;-70
2024/03/08 12:29:39;;;;;;;5.70;4.80;;;;;;;5.76;79.83;95804.48;110629;1273;22777;-70
2024/03/08 12:32:35;;;;;;;10.20;7.60;;;;;;;5.78;80.01;95798.91;110606;1274;22792;-70
2024/03/08 12:35:05;;;;;;;11.50;8.10;;;;;;;5.77;80.01;95801.52;110629;1274;22114;-71
2024/03/08 12:37:48;;;;;;;;;;;;;;;;;;;;;
2024/03/08 12:40:34;;;;;;;;;;;;;;;5.55;80.88;95798.47;110639;1274;22378;-71
2024/03/08 12:43:16;;;;;;;;;;;;;;;;;;;;;
2024/03/08 12:46:08;;;;;;;17.70;12.40;;;;;;;5.46;81.51;95798.08;110621;1274;22183;-71
2024/03/08 12:49:23;;;;;;;13.50;9.90;;;;;;;5.47;82.10;95800.18;110623;1274;22255;-71
2024/03/08 12:51:52;;;;;;;13.00;9.40;;;;;;;5.48;82.11;95799.48;110616;1273;22084;-70
2024/03/08 12:55:06;;;;;;;15.70;10.90;;;;;;;5.53;82.20;95794.27;110626;1274;22102;-70
2024/03/08 12:57:37;;;;;;;13.90;10.10;;;;;;;5.56;82.55;95797.60;110645;1274;22268;-71
2024/03/08 13:00:12;;;;;;;14.20;10.00;;;;;;;5.64;82.40;95792.92;110472;1273;22150;-71
2024/03/08 13:02:51;;;;;;;16.20;10.90;;;;;;;5.64;82.41;95789.95;110597;1273;22839;-71
2024/03/08 13:05:30;;;;;;;16.70;11.70;;;;;;;5.63;82.26;95788.90;110626;1274;22203;-70
2024/03/08 13:07:59;;;;;;;16.50;11.70;;;;;;;5.57;82.16;95785.04;110621;1274;22202;-70
2024/03/08 13:10:51;;;;;;;17.80;12.30;;;;;;;5.57;82.21;95785.73;110603;1273;22269;-71
2024/03/08 13:13:50;;;;;;;18.50;12.60;;;;;;;5.53;82.47;95781.01;110617;1273;22111;-71
2024/03/08 13:16:30;;;;;;;20.10;13.60;;;;;;;5.51;82.56;95782.21;110645;1274;22732;-71
2024/03/08 13:19:25;;;;;;;18.90;12.30;;;;;;;5.53;82.72;95782.23;110635;1274;22206;-71
2024/03/08 13:21:57;;;;;;;22.40;12.80;;;;;;;5.53;82.60;95782.76;110613;1263;22762;-71
2024/03/08 13:24:46;;;;;;;23.50;13.80;;;;;;;5.46;82.51;95787.09;110615;1274;22080;-71
2024/03/08 13:27:39;;;;;;;20.40;13.00;;;;;;;5.41;82.74;95785.67;110629;1273;22861;-70
2024/03/08 13:30:30;;;;;;;21.60;13.20;;;;;;;5.33;82.89;95788.25;110604;1274;22823;-71
2024/03/08 13:33:08;;;;;;;22.10;14.30;;;;;;;5.31;83.23;95785.27;110629;1274;22874;-71
2024/03/08 13:36:00;;;;;;;21.70;13.00;;;;;;;5.32;83.43;95782.84;110632;1274;22934;-70
2024/03/08 13:38:36;;;;;;;21.10;13.10;;;;;;;5.28;83.22;95782.83;110606;1274;22878;-71
2024/03/08 13:41:25;;;;;;;22.80;14.50;;;;;;;5.23;83.19;95782.27;110619;1273;22195;-71
2024/03/08 13:44:14;;;;;;;24.10;13.30;;;;;;;5.14;83.28;95782.92;110644;1273;22112;-71
2024/03/08 13:46:47;;;;;;;18.30;11.40;;;;;;;5.03;83.67;95789.13;110599;1274;22911;-71
2024/03/08 13:49:54;;;;;;;18.60;12.50;;;;;;;4.96;83.91;95792.58;110637;1274;22121;-71
2024/03/08 13:52:34;;;;;;;;;;;;;;;;;;;;;
2024/03/08 13:55:05;;;;;;;18.80;12.20;;;;;;;4.86;84.58;95794.44;110630;1267;22117;-71
2024/03/08 13:57:52;;;;;;;;;;;;;;;;;;;;;
2024/03/08 14:00:23;;;;;;;16.20;9.50;;;;;;;4.72;85.13;95796.60;110639;1274;22220;-70
2024/03/08 14:03:15;;;;;;;17.90;10.40;;;;;;;4.71;85.51;95795.56;110643;1274;22128;-70
2024/03/08 14:05:49;;;;;;;21.10;13.00;;;;;;;4.69;85.50;95794.33;110626;1274;22161;-70
2024/03/08 14:08:34;;;;;;;20.90;12.80;;;;;;;4.64;85.61;95794.98;110634;1274;22100;-70
2024/03/08 14:11:26;;;;;;;20.20;11.80;;;;;;;4.58;86.45;95800.86;110633;1274;22828;-70
2024/03/08 14:14:20;;;;;;;17.10;10.90;;;;;;;4.54;86.32;95799.60;110597;1273;22596;-70
2024/03/08 14:17:31;;;;;;;21.80;11.30;;;;;;;4.52;86.84;95798.53;110638;1273;22873;-71
2024/03/08 14:20:13;;;;;;;24.20;13.00;;;;;;;4.53;86.86;95798.37;110644;1273;22119;-71
2024/03/08 14:22:41;;;;;;;20.90;12.50;;;;;;;4.52;86.71;95797.15;110627;1274;22828;-71
2024/03/08 14:25:23;;;;;;;25.80;14.90;;;;;;;4.48;86.98;95795.71;110648;1274;22111;-71
2024/03/08 14:28:15;;;;;;;27.30;14.80;;;;;;;4.49;86.69;95794.69;110613;1274;22318;-72
2024/03/08 14:31:18;;;;;;;33.90;19.00;;;;;;;4.49;86.83;95795.02;110656;1274;22098;-71